Time;durP1;ratioP1;P1;durP2;ratioP2;P2;SDS_P1;SDS_P2;PMS_P1;PMS_P2;Temp;Humidity;BMP_temperature;BMP_pressure;BME280_temperature;BME280_humidity;BME280_pressure;Samples;Min_cycle;Max_cycle;Signal;HPM_P1;HPM_P2
2022/08/18 00:01:46;;;;;;;25.30;13.98;;;19.50;99.90;;;;;;5015177;28;20033;-89
2022/08/18 00:04:12;;;;;;;24.02;13.10;;;19.40;99.90;;;;;;5015042;28;20041;-90
2022/08/18 00:06:39;;;;;;;22.98;13.88;;;19.50;99.90;;;;;;5031663;28;20041;-89
2022/08/18 00:09:07;;;;;;;25.15;14.15;;;19.30;99.90;;;;;;5014549;28;20041;-90
2022/08/18 00:11:37;;;;;;;24.55;14.07;;;19.30;99.90;;;;;;5030202;28;20042;-90
2022/08/18 00:14:03;;;;;;;23.75;12.90;;;19.30;99.90;;;;;;5037088;28;20128;-88
2022/08/18 00:16:29;;;;;;;24.38;12.10;;;19.30;99.90;;;;;;5031055;28;20042;-89
2022/08/18 00:18:54;;;;;;;23.75;14.18;;;19.40;99.90;;;;;;5029898;28;20369;-88
2022/08/18 00:21:20;;;;;;;24.33;13.10;;;19.30;99.90;;;;;;5020170;28;20470;-89
2022/08/18 00:23:46;;;;;;;22.95;12.07;;;19.40;99.90;;;;;;5036142;28;20042;-90
2022/08/18 00:26:12;;;;;;;20.33;11.88;;;19.30;99.90;;;;;;4995928;28;20052;-89
2022/08/18 00:28:38;;;;;;;18.65;10.90;;;19.40;99.90;;;;;;5007017;28;20084;-90
2022/08/18 00:31:04;;;;;;;19.52;10.52;;;19.30;99.90;;;;;;4997504;28;20099;-90
2022/08/18 00:33:30;;;;;;;21.13;11.07;;;19.30;99.90;;;;;;4993681;28;20056;-91
2022/08/18 00:35:56;;;;;;;19.77;10.48;;;19.30;99.90;;;;;;5020547;28;20050;-89
2022/08/18 00:38:21;;;;;;;19.27;10.07;;;19.20;99.90;;;;;;5032590;28;20196;-89
2022/08/18 00:40:50;;;;;;;21.42;9.77;;;19.30;99.90;;;;;;5005374;28;20041;-89
2022/08/18 00:43:36;;;;;;;19.88;8.95;;;19.30;99.90;;;;;;4995439;28;20042;-90
2022/08/18 00:46:04;;;;;;;;;;;19.30;99.90;;;;;;5014197;28;20137;-89
2022/08/18 00:48:30;;;;;;;20.75;9.25;;;19.30;99.90;;;;;;5014989;28;19917;-90
2022/08/18 00:51:05;;;;;;;24.98;9.10;;;19.10;99.90;;;;;;4991206;28;20125;-89
2022/08/18 00:53:48;;;;;;;17.08;8.60;;;19.20;99.90;;;;;;5012783;28;20045;-90
2022/08/18 00:56:21;;;;;;;15.57;9.38;;;19.10;99.90;;;;;;5007800;28;20069;-91
2022/08/18 00:58:54;;;;;;;19.92;9.45;;;19.30;99.90;;;;;;5019218;28;20507;-89
2022/08/18 01:01:23;;;;;;;19.15;9.48;;;19.20;99.90;;;;;;5009370;28;20148;-88
2022/08/18 01:03:53;;;;;;;22.70;10.10;;;19.30;99.90;;;;;;5008163;28;20084;-91
2022/08/18 01:06:35;;;;;;;15.73;8.98;;;19.20;99.90;;;;;;5011332;28;20647;-88
2022/08/18 01:09:02;;;;;;;13.85;8.52;;;19.20;99.90;;;;;;5027865;28;20038;-88
2022/08/18 01:11:28;;;;;;;16.52;8.57;;;19.30;99.90;;;;;;4994580;28;20549;-91
2022/08/18 01:13:54;;;;;;;17.10;9.30;;;19.10;99.90;;;;;;5034637;28;20069;-88
2022/08/18 01:21:59;;;;;;;18.73;9.25;;;19.10;99.90;;;;;;5008647;28;20127;-90
2022/08/18 01:27:17;;;;;;;16.45;8.32;;;19.20;99.90;;;;;;5032587;28;20080;-89
2022/08/18 01:29:48;;;;;;;16.00;9.70;;;19.20;99.90;;;;;;4991851;28;20038;-89
2022/08/18 01:32:18;;;;;;;17.70;8.65;;;19.20;99.90;;;;;;4988629;28;20034;-88
2022/08/18 01:34:46;;;;;;;18.83;9.57;;;19.20;99.90;;;;;;4994921;28;20123;-89
2022/08/18 01:37:16;;;;;;;17.77;8.75;;;19.10;99.90;;;;;;5010457;28;20469;-88
2022/08/18 01:39:43;;;;;;;19.77;8.55;;;19.10;99.90;;;;;;5011182;28;20046;-89
2022/08/18 01:42:11;;;;;;;19.05;8.27;;;18.90;99.90;;;;;;5005197;28;20104;-89
2022/08/18 01:44:40;;;;;;;16.92;8.60;;;19.00;99.90;;;;;;4989927;28;20033;-89
2022/08/18 01:47:07;;;;;;;17.13;8.73;;;19.10;99.90;;;;;;5034312;28;20025;-89
2022/08/18 01:49:33;;;;;;;21.35;8.73;;;19.10;99.90;;;;;;5011241;28;20038;-88
2022/08/18 01:51:59;;;;;;;19.42;8.52;;;19.00;99.90;;;;;;4990285;28;20511;-89
2022/08/18 01:54:31;;;;;;;17.05;9.10;;;19.10;99.90;;;;;;5027858;28;20068;-90
2022/08/18 01:56:56;;;;;;;18.05;9.43;;;19.10;99.90;;;;;;4994247;28;20041;-89
2022/08/18 01:59:22;;;;;;;18.45;8.93;;;19.00;99.90;;;;;;4992921;28;20136;-89
2022/08/18 02:01:48;;;;;;;24.83;8.57;;;18.90;99.90;;;;;;5033978;28;20038;-88
2022/08/18 02:04:15;;;;;;;15.65;8.07;;;19.00;99.90;;;;;;5010925;28;20080;-88
2022/08/18 02:06:42;;;;;;;20.02;8.30;;;18.80;99.90;;;;;;4994154;28;20064;-87
2022/08/18 02:09:07;;;;;;;21.58;9.18;;;18.90;99.90;;;;;;4994174;28;20476;-89
2022/08/18 02:11:33;;;;;;;21.42;8.68;;;18.90;99.90;;;;;;4997058;28;20145;-89
2022/08/18 02:13:59;;;;;;;18.23;8.40;;;19.00;99.90;;;;;;4996218;28;20034;-89
2022/08/18 02:16:25;;;;;;;19.35;8.65;;;19.00;99.90;;;;;;4996330;28;20038;-88
2022/08/18 02:18:50;;;;;;;21.77;9.30;;;18.90;99.90;;;;;;5014821;28;20129;-88
2022/08/18 02:21:19;;;;;;;23.60;9.30;;;18.90;99.90;;;;;;5005153;28;20270;-89
2022/08/18 02:23:45;;;;;;;19.85;10.20;;;18.80;99.90;;;;;;5009684;28;20494;-89
2022/08/18 02:26:14;;;;;;;20.27;9.60;;;18.90;99.90;;;;;;5014452;28;20062;-89
2022/08/18 02:28:40;;;;;;;23.65;9.35;;;19.00;99.90;;;;;;4993605;28;20037;-88
2022/08/18 02:31:09;;;;;;;22.48;10.02;;;18.90;99.90;;;;;;4990240;28;20136;-88
2022/08/18 02:33:35;;;;;;;23.50;10.20;;;18.80;99.90;;;;;;4994052;28;20556;-89
2022/08/18 02:36:02;;;;;;;24.00;10.05;;;18.80;99.90;;;;;;5001802;28;20049;-88
2022/08/18 02:38:28;;;;;;;21.42;10.27;;;18.80;99.90;;;;;;5008835;28;20589;-88
2022/08/18 02:40:59;;;;;;;27.40;10.48;;;18.90;99.90;;;;;;5027958;28;20072;-89
2022/08/18 02:43:25;;;;;;;19.30;9.90;;;18.90;99.90;;;;;;4986913;28;20037;-89
2022/08/18 02:45:51;;;;;;;20.15;10.25;;;18.90;99.90;;;;;;5025486;28;20542;-88
2022/08/18 02:48:23;;;;;;;21.33;10.48;;;18.90;99.90;;;;;;5007454;28;20367;-89
2022/08/18 02:50:48;;;;;;;21.42;10.82;;;18.90;99.90;;;;;;5014685;28;20488;-89
2022/08/18 02:53:23;;;;;;;21.02;11.20;;;18.90;99.90;;;;;;4990103;28;20118;-89
2022/08/18 02:55:49;;;;;;;19.80;11.02;;;18.90;99.90;;;;;;5002834;28;20076;-89
2022/08/18 02:58:15;;;;;;;27.02;11.15;;;18.80;99.90;;;;;;4993904;28;20041;-90
2022/08/18 03:00:41;;;;;;;19.50;11.35;;;18.90;99.90;;;;;;5007807;28;20034;-89
2022/08/18 03:03:07;;;;;;;23.58;10.90;;;19.00;99.90;;;;;;4992890;28;20053;-89
2022/08/18 03:05:33;;;;;;;22.70;11.07;;;18.90;99.90;;;;;;5005274;28;20044;-88
2022/08/18 03:07:59;;;;;;;20.88;11.68;;;19.00;99.90;;;;;;5038002;28;20131;-89
2022/08/18 03:10:25;;;;;;;19.88;11.38;;;19.00;99.90;;;;;;5029424;28;20239;-88
2022/08/18 03:12:52;;;;;;;20.10;11.27;;;18.90;99.90;;;;;;5004958;28;20045;-89
2022/08/18 03:15:17;;;;;;;20.83;11.27;;;19.00;99.90;;;;;;4989593;28;20037;-89
2022/08/18 03:17:43;;;;;;;22.63;11.30;;;18.90;99.90;;;;;;4991488;28;20452;-89
2022/08/18 03:20:09;;;;;;;19.60;11.30;;;18.90;99.90;;;;;;5029298;28;20181;-89
2022/08/18 03:22:36;;;;;;;28.98;13.00;;;19.00;99.90;;;;;;5019522;28;20037;-88
2022/08/18 03:25:03;;;;;;;24.05;12.07;;;18.90;99.90;;;;;;4989952;28;20082;-90
2022/08/18 03:27:32;;;;;;;28.83;12.32;;;18.90;99.90;;;;;;5020338;28;20046;-89
2022/08/18 03:29:59;;;;;;;18.20;12.30;;;18.90;99.90;;;;;;4986186;28;20604;-89
2022/08/18 03:32:25;;;;;;;31.27;11.27;;;19.00;99.90;;;;;;5005082;28;20041;-89
2022/08/18 03:34:51;;;;;;;23.17;12.05;;;19.00;99.90;;;;;;5025495;28;20331;-88
2022/08/18 03:37:16;;;;;;;21.85;11.65;;;18.90;99.90;;;;;;4990995;28;20037;-89
2022/08/18 03:39:42;;;;;;;21.92;12.38;;;18.90;99.90;;;;;;4993030;28;20113;-87
2022/08/18 03:42:07;;;;;;;22.80;12.00;;;19.00;99.90;;;;;;5027004;28;20056;-89
2022/08/18 03:44:36;;;;;;;33.95;13.85;;;18.90;99.90;;;;;;5004975;28;20962;-89
2022/08/18 03:47:03;;;;;;;24.67;12.30;;;19.10;99.90;;;;;;5008201;28;20037;-89
2022/08/18 03:49:30;;;;;;;23.63;11.95;;;19.00;99.90;;;;;;4990881;28;20461;-89
2022/08/18 03:51:58;;;;;;;26.10;13.00;;;19.10;99.90;;;;;;5026036;28;20045;-90
2022/08/18 03:54:24;;;;;;;25.50;12.93;;;18.90;99.90;;;;;;5025144;28;20045;-89
2022/08/18 03:56:53;;;;;;;25.58;12.63;;;19.00;99.90;;;;;;4989529;28;20087;-88
2022/08/18 03:59:21;;;;;;;24.88;12.75;;;18.90;99.90;;;;;;5007824;28;20069;-88
2022/08/18 04:01:49;;;;;;;21.00;12.75;;;19.00;99.90;;;;;;5007368;28;20034;-87
2022/08/18 04:04:22;;;;;;;22.63;13.00;;;19.10;99.90;;;;;;5013279;28;20042;-89
2022/08/18 04:06:57;;;;;;;22.33;12.80;;;19.10;99.90;;;;;;5024876;28;20077;-87
2022/08/18 04:09:24;;;;;;;25.73;14.10;;;18.90;99.90;;;;;;5007941;28;20045;-88
2022/08/18 04:11:50;;;;;;;23.73;13.32;;;19.00;99.90;;;;;;5029890;28;20045;-87
2022/08/18 04:14:20;;;;;;;27.10;12.90;;;19.00;99.90;;;;;;5010458;28;20046;-88
2022/08/18 04:16:47;;;;;;;21.40;13.20;;;19.10;99.90;;;;;;5027781;28;20048;-88
2022/08/18 04:19:15;;;;;;;23.90;12.85;;;19.10;99.90;;;;;;5005632;28;20049;-88
2022/08/18 04:21:42;;;;;;;23.63;12.82;;;19.00;99.90;;;;;;5008274;28;20042;-89
2022/08/18 04:24:10;;;;;;;21.75;12.65;;;19.00;99.90;;;;;;4993495;28;20026;-89
2022/08/18 04:26:43;;;;;;;20.33;13.23;;;18.90;99.90;;;;;;5017438;28;20493;-89
2022/08/18 04:29:10;;;;;;;21.15;12.65;;;19.10;99.90;;;;;;5033997;28;20069;-89
2022/08/18 04:31:36;;;;;;;22.38;12.95;;;19.10;99.90;;;;;;5042374;28;20106;-90
2022/08/18 04:34:02;;;;;;;21.85;12.70;;;19.00;99.90;;;;;;5037246;28;20040;-91
2022/08/18 04:36:30;;;;;;;23.08;14.10;;;18.90;99.90;;;;;;4996502;28;20038;-90
2022/08/18 04:39:00;;;;;;;22.50;13.40;;;19.00;99.90;;;;;;5035200;28;20033;-92
2022/08/18 04:41:26;;;;;;;22.42;13.63;;;19.10;99.90;;;;;;4999325;28;20512;-91
2022/08/18 04:43:54;;;;;;;22.65;12.82;;;19.00;99.90;;;;;;4993174;28;20255;-91
2022/08/18 04:46:19;;;;;;;18.63;12.02;;;19.00;99.90;;;;;;4997276;28;20510;-92
2022/08/18 04:48:45;;;;;;;19.00;12.98;;;19.00;99.90;;;;;;4999497;28;20115;-92
2022/08/18 04:51:14;;;;;;;21.45;12.82;;;19.00;99.90;;;;;;5012093;28;20600;-91
2022/08/18 04:53:45;;;;;;;22.13;12.45;;;19.10;99.90;;;;;;4994842;28;20060;-92
2022/08/18 04:56:20;;;;;;;19.23;13.40;;;19.00;99.90;;;;;;5006259;28;20033;-92
2022/08/18 04:58:50;;;;;;;18.80;12.02;;;19.10;99.90;;;;;;5016216;28;20112;-92
2022/08/18 05:01:19;;;;;;;23.25;12.35;;;19.10;99.90;;;;;;4999808;28;20042;-91
2022/08/18 05:03:45;;;;;;;19.50;11.50;;;19.10;99.90;;;;;;5036496;28;20041;-91
2022/08/18 05:06:11;;;;;;;19.13;11.35;;;19.20;99.90;;;;;;5010660;28;20042;-91
2022/08/18 05:08:36;;;;;;;17.98;11.38;;;19.20;99.90;;;;;;5036992;28;20103;-91
2022/08/18 05:11:02;;;;;;;19.40;11.88;;;19.00;99.90;;;;;;4999765;28;20038;-92
2022/08/18 05:13:28;;;;;;;18.92;11.02;;;19.20;99.90;;;;;;5040327;28;20052;-91
2022/08/18 05:16:02;;;;;;;20.73;12.63;;;19.00;99.90;;;;;;5039474;28;20034;-92
2022/08/18 05:18:29;;;;;;;17.33;11.50;;;19.10;99.90;;;;;;5004718;28;20042;-91
2022/08/18 05:20:55;;;;;;;19.30;11.75;;;19.20;99.90;;;;;;5018182;28;20041;-91
2022/08/18 05:23:22;;;;;;;18.05;12.25;;;19.00;99.90;;;;;;4990727;28;20029;-90
2022/08/18 05:25:48;;;;;;;17.42;12.63;;;19.20;99.90;;;;;;5035071;28;20042;-90
2022/08/18 05:28:15;;;;;;;17.13;12.30;;;19.20;99.90;;;;;;5045185;28;20045;-91
2022/08/18 05:30:41;;;;;;;22.15;12.55;;;19.20;99.90;;;;;;5043311;28;20037;-90
2022/08/18 05:33:11;;;;;;;14.55;12.70;;;19.10;99.90;;;;;;5001754;28;20038;-90
2022/08/18 05:36:04;;;;;;;21.02;12.73;;;19.20;99.90;;;;;;5022939;28;20045;-89
2022/08/18 05:38:57;;;;;;;16.83;13.25;;;19.10;99.90;;;;;;5034824;28;20406;-90
2022/08/18 05:41:31;;;;;;;15.60;12.77;;;19.10;99.90;;;;;;5015408;28;20097;-90
2022/08/18 05:43:57;;;;;;;16.83;12.82;;;19.20;99.90;;;;;;5023232;28;20442;-90
2022/08/18 05:46:51;;;;;;;17.23;13.48;;;19.20;99.90;;;;;;5029925;28;20557;-90
2022/08/18 05:49:16;;;;;;;17.77;12.75;;;19.20;99.90;;;;;;5008248;28;20409;-89
2022/08/18 05:51:56;;;;;;;22.38;13.57;;;19.40;99.90;;;;;;5034579;28;20038;-91
2022/08/18 05:57:21;;;;;;;17.35;12.82;;;19.30;99.90;;;;;;5011047;28;20037;-91
2022/08/18 05:59:47;;;;;;;19.95;12.25;;;19.30;99.90;;;;;;5015453;28;20065;-90
2022/08/18 06:02:29;;;;;;;18.80;11.93;;;19.40;99.90;;;;;;5008872;28;20315;-90
2022/08/18 06:04:58;;;;;;;15.02;11.70;;;19.40;99.90;;;;;;5029263;28;20033;-90
2022/08/18 06:07:45;;;;;;;21.83;12.10;;;19.50;99.90;;;;;;5030186;28;20100;-90
2022/08/18 06:10:12;;;;;;;19.00;12.07;;;19.40;99.90;;;;;;5006846;28;20084;-90
2022/08/18 06:12:52;;;;;;;20.65;11.75;;;19.40;99.90;;;;;;5036192;28;20457;-89
2022/08/18 06:15:30;;;;;;;19.70;12.18;;;19.50;99.90;;;;;;5007224;28;20194;-89
2022/08/18 06:18:12;;;;;;;16.88;12.50;;;19.40;99.90;;;;;;5011341;28;20096;-89
2022/08/18 06:21:15;;;;;;;12.77;10.90;;;19.60;99.90;;;;;;5019021;28;20271;-89
2022/08/18 06:24:00;;;;;;;15.77;10.52;;;19.70;99.90;;;;;;5007950;28;20064;-90
2022/08/18 06:26:49;;;;;;;15.60;10.97;;;19.80;99.90;;;;;;4997142;28;20211;-92
2022/08/18 06:29:35;;;;;;;16.92;10.25;;;19.90;99.90;;;;;;5013219;28;20048;-92
2022/08/18 06:32:30;;;;;;;14.63;10.52;;;19.90;99.90;;;;;;5005754;28;20125;-90
2022/08/18 06:35:01;;;;;;;13.57;9.83;;;20.00;99.90;;;;;;4982026;28;20058;-90
2022/08/18 06:38:37;;;;;;;14.07;9.68;;;20.00;99.90;;;;;;5003152;28;20285;-89
2022/08/18 06:40:23;;;;;;;13.10;8.52;;;20.00;99.90;;;;;;5034739;28;20053;-91
2022/08/18 06:42:49;;;;;;;10.55;8.02;;;19.90;99.90;;;;;;5011725;28;20041;-90
2022/08/18 06:45:17;;;;;;;14.68;8.32;;;20.20;99.90;;;;;;5000453;28;20042;-89
2022/08/18 06:47:51;;;;;;;12.68;8.35;;;20.10;99.90;;;;;;5051026;28;20046;-90
2022/08/18 06:50:46;;;;;;;14.68;8.60;;;19.90;99.90;;;;;;5012238;28;20044;-88
2022/08/18 06:53:13;;;;;;;14.25;7.95;;;19.80;99.90;;;;;;5013761;28;20064;-89
2022/08/18 06:55:50;;;;;;;13.32;7.45;;;19.70;99.90;;;;;;5015616;28;20443;-90
2022/08/18 06:58:16;;;;;;;12.50;7.78;;;19.70;99.90;;;;;;5021744;28;20049;-90
2022/08/18 07:01:05;;;;;;;13.80;6.97;;;19.80;99.90;;;;;;4998794;28;20045;-91
2022/08/18 07:03:42;;;;;;;9.35;7.03;;;19.70;99.90;;;;;;5009182;28;20045;-90
2022/08/18 07:06:08;;;;;;;13.10;7.22;;;19.80;99.90;;;;;;4996540;28;20061;-90
2022/08/18 07:08:40;;;;;;;10.88;7.22;;;19.80;99.90;;;;;;5016453;28;20069;-91
2022/08/18 07:11:31;;;;;;;12.82;6.18;;;19.90;99.90;;;;;;4995529;28;20044;-90
2022/08/18 07:14:21;;;;;;;11.35;6.22;;;19.80;99.90;;;;;;5034797;28;20067;-89
2022/08/18 07:16:48;;;;;;;10.95;5.85;;;20.00;99.90;;;;;;4993885;28;20056;-90
2022/08/18 07:19:19;;;;;;;14.93;6.45;;;19.90;99.90;;;;;;4997064;28;20049;-89
2022/08/18 07:22:04;;;;;;;12.98;5.47;;;20.10;99.90;;;;;;5005492;28;20119;-91
2022/08/18 07:24:39;;;;;;;12.33;5.23;;;20.20;99.90;;;;;;5014145;28;20034;-88
2022/08/18 07:27:09;;;;;;;;;;;20.40;99.90;;;;;;4993335;28;20800;-90
2022/08/18 07:29:58;;;;;;;15.15;5.95;;;20.80;99.90;;;;;;5020080;28;19968;-90
2022/08/18 07:32:31;;;;;;;13.45;5.22;;;21.20;99.90;;;;;;5015121;28;20342;-90
2022/08/18 07:35:02;;;;;;;13.57;6.15;;;20.70;99.90;;;;;;5008212;28;20048;-91
2022/08/18 07:37:41;;;;;;;12.85;3.90;;;20.60;99.90;;;;;;4990695;28;20037;-91
2022/08/18 07:40:19;;;;;;;8.48;3.58;;;20.00;99.90;;;;;;4993680;28;20370;-92
2022/08/18 07:43:07;;;;;;;10.90;4.25;;;19.80;99.90;;;;;;5015121;28;20041;-91
2022/08/18 07:45:43;;;;;;;15.52;4.78;;;19.70;99.90;;;;;;4994345;28;20038;-90
2022/08/18 07:48:18;;;;;;;14.77;4.65;;;19.60;99.90;;;;;;5016474;28;20247;-90
2022/08/18 07:50:47;;;;;;;;;;;19.60;99.90;;;;;;5019931;28;20049;-91
2022/08/18 07:53:25;;;;;;;14.80;5.07;;;19.70;99.90;;;;;;4999037;28;20014;-89
2022/08/18 07:55:57;;;;;;;13.05;4.75;;;19.80;99.90;;;;;;5015180;28;20034;-89
2022/08/18 07:58:55;;;;;;;12.52;4.15;;;19.70;99.90;;;;;;5011019;28;20042;-90
2022/08/18 08:01:56;;;;;;;10.40;4.40;;;19.70;99.90;;;;;;5030966;28;20710;-88
2022/08/18 08:04:51;;;;;;;18.73;4.57;;;19.80;99.90;;;;;;5000031;28;20050;-88
2022/08/18 08:07:23;;;;;;;10.90;4.63;;;20.10;99.90;;;;;;4999983;28;20065;-88
2022/08/18 08:10:04;;;;;;;10.95;5.00;;;20.30;99.90;;;;;;5049285;28;20076;-88
2022/08/18 08:13:01;;;;;;;18.20;4.88;;;20.20;99.90;;;;;;5023461;28;20457;-89
2022/08/18 08:16:01;;;;;;;10.70;4.57;;;20.20;99.90;;;;;;5039086;28;20053;-88
2022/08/18 08:19:08;;;;;;;10.13;4.13;;;20.30;99.90;;;;;;5017954;28;20042;-89
2022/08/18 08:21:43;;;;;;;11.25;3.90;;;20.40;99.90;;;;;;4966307;28;20494;-88
2022/08/18 08:24:28;;;;;;;9.75;3.70;;;20.40;99.90;;;;;;5041989;28;20074;-88
2022/08/18 08:27:13;;;;;;;9.73;3.38;;;20.50;99.90;;;;;;5035220;28;20033;-89
2022/08/18 08:30:00;;;;;;;10.68;3.53;;;20.50;99.90;;;;;;5012594;28;20552;-88
2022/08/18 08:32:49;;;;;;;8.07;3.65;;;20.40;99.90;;;;;;5013490;28;20053;-89
2022/08/18 08:35:25;;;;;;;11.55;3.83;;;20.10;99.90;;;;;;5021230;28;20125;-90
2022/08/18 08:38:05;;;;;;;7.95;3.65;;;20.10;99.90;;;;;;5011521;28;20132;-90
2022/08/18 08:40:51;;;;;;;5.78;3.10;;;20.10;99.90;;;;;;5013721;28;20510;-89
2022/08/18 08:43:31;;;;;;;8.80;3.30;;;20.20;99.90;;;;;;5009708;28;20400;-88
2022/08/18 08:46:19;;;;;;;7.05;3.40;;;19.90;99.90;;;;;;5040084;28;20110;-90
2022/08/18 08:49:16;;;;;;;9.85;3.60;;;20.30;99.90;;;;;;5010822;28;20182;-90
2022/08/18 08:51:55;;;;;;;5.93;3.42;;;20.30;99.90;;;;;;5015512;28;20053;-89
2022/08/18 08:54:26;;;;;;;7.70;3.40;;;20.30;99.90;;;;;;5043481;28;20036;-89
2022/08/18 08:56:55;;;;;;;5.57;3.33;;;20.40;99.90;;;;;;4994671;28;20154;-88
2022/08/18 08:59:22;;;;;;;5.68;2.95;;;20.50;99.90;;;;;;5017528;28;20073;-88
2022/08/18 09:02:03;;;;;;;7.72;2.85;;;20.40;90.30;;;;;;4996843;28;20041;-89
2022/08/18 09:04:49;;;;;;;6.88;2.97;;;20.40;99.90;;;;;;5013228;28;20470;-89
2022/08/18 09:07:53;;;;;;;4.15;2.50;;;20.60;99.90;;;;;;4997821;28;20041;-90
2022/08/18 09:10:24;;;;;;;4.25;2.40;;;20.60;99.90;;;;;;5020089;28;20045;-89
2022/08/18 09:13:17;;;;;;;3.75;2.28;;;20.80;99.90;;;;;;4995246;28;20045;-89
2022/08/18 09:16:12;;;;;;;4.88;2.90;;;20.70;99.90;;;;;;5025740;28;20132;-88
2022/08/18 09:19:02;;;;;;;7.72;2.90;;;21.00;2.60;;;;;;5014286;28;20068;-90
2022/08/18 09:21:34;;;;;;;4.10;2.35;;;20.90;1.00;;;;;;5011709;28;20127;-90
2022/08/18 09:24:30;;;;;;;6.07;2.85;;;20.60;99.90;;;;;;5002026;28;20034;-90
2022/08/18 09:27:02;;;;;;;4.50;2.30;;;21.20;1.00;;;;;;4990043;28;20038;-90
2022/08/18 09:29:39;;;;;;;4.90;2.47;;;21.50;99.90;;;;;;5034657;28;20274;-88
2022/08/18 09:32:29;;;;;;;4.68;2.10;;;21.40;1.00;;;;;;4992519;28;20034;-90
2022/08/18 09:34:59;;;;;;;6.32;2.17;;;21.20;99.90;;;;;;4993807;28;20222;-88
2022/08/18 09:37:38;;;;;;;5.53;2.15;;;21.00;99.90;;;;;;5024087;28;20532;-88
2022/08/18 09:43:31;;;;;;;5.25;2.38;;;21.00;99.90;;;;;;5009255;28;20523;-88
2022/08/18 09:45:59;;;;;;;3.47;2.13;;;21.20;99.90;;;;;;5040246;28;20052;-88
2022/08/18 09:48:36;;;;;;;3.78;2.30;;;20.90;1.00;;;;;;5024256;28;20478;-88
2022/08/18 09:51:14;;;;;;;4.63;2.30;;;20.90;99.90;;;;;;5007362;28;20151;-89
2022/08/18 09:53:46;;;;;;;5.43;2.60;;;21.20;99.90;;;;;;5027064;28;20351;-89
2022/08/18 09:56:15;;;;;;;4.45;2.78;;;21.30;99.90;;;;;;5023260;28;20096;-87
2022/08/18 09:58:57;;;;;;;7.43;2.53;;;21.20;99.90;;;;;;5009473;28;20049;-88
2022/08/18 10:01:30;;;;;;;6.03;2.33;;;21.30;99.90;;;;;;5005783;28;20041;-87
2022/08/18 10:04:15;;;;;;;5.40;2.45;;;21.70;87.20;;;;;;4994937;28;20532;-88
2022/08/18 10:06:43;;;;;;;5.28;2.65;;;21.50;99.90;;;;;;5020274;28;20199;-87
2022/08/18 10:09:36;;;;;;;5.95;2.20;;;21.90;1.00;;;;;;5010537;28;20046;-88
2022/08/18 10:12:22;;;;;;;5.38;2.30;;;22.10;1.00;;;;;;5029697;28;20141;-89
2022/08/18 10:15:16;;;;;;;4.80;2.53;;;21.50;99.90;;;;;;5003308;28;20104;-88
2022/08/18 10:18:02;;;;;;;6.97;2.30;;;21.40;1.00;;;;;;5032463;28;20048;-89
2022/08/18 10:20:47;;;;;;;3.95;2.40;;;21.70;1.00;;;;;;4991443;28;20051;-91
2022/08/18 10:23:47;;;;;;;5.57;2.10;;;22.00;99.90;;;;;;5024585;28;20087;-88
2022/08/18 10:26:33;;;;;;;5.72;2.28;;;22.10;1.00;;;;;;5017867;28;20252;-87
2022/08/18 10:29:04;;;;;;;;;;;21.70;1.00;;;;;;5006644;28;20045;-88
2022/08/18 10:31:51;;;;;;;6.43;2.00;;;21.90;8.90;;;;;;4997306;28;19918;-87
2022/08/18 10:34:36;;;;;;;4.90;2.10;;;21.90;1.00;;;;;;5018102;28;20053;-86
2022/08/18 10:37:15;;;;;;;4.33;2.23;;;22.50;1.00;;;;;;5004994;28;20133;-88
2022/08/18 10:39:43;;;;;;;3.53;2.33;;;22.10;99.90;;;;;;5018685;28;20120;-89
2022/08/18 10:42:23;;;;;;;3.53;1.85;;;21.90;99.90;;;;;;5043126;28;20087;-88
2022/08/18 10:44:52;;;;;;;4.70;2.10;;;21.50;99.90;;;;;;5011393;28;20034;-87
2022/08/18 10:47:25;;;;;;;6.05;2.45;;;21.20;99.90;;;;;;5020739;28;20049;-87
2022/08/18 10:49:52;;;;;;;4.43;1.90;;;21.30;99.90;;;;;;5018762;28;20073;-89
2022/08/18 10:52:45;;;;;;;6.13;1.92;;;21.30;99.90;;;;;;5018867;28;20489;-89
2022/08/18 10:55:14;;;;;;;4.75;1.92;;;21.30;85.60;;;;;;4995483;28;20098;-89
2022/08/18 10:58:09;;;;;;;5.20;2.00;;;21.40;1.00;;;;;;4989168;28;20418;-88
2022/08/18 11:01:06;;;;;;;5.22;2.25;;;21.50;99.90;;;;;;5023865;28;20103;-90
2022/08/18 11:03:47;;;;;;;4.20;2.17;;;21.60;99.90;;;;;;5018202;28;20054;-89
2022/08/18 11:06:20;;;;;;;4.97;2.10;;;21.70;99.90;;;;;;5010193;28;20077;-87
2022/08/18 11:08:51;;;;;;;4.72;2.00;;;22.00;1.00;;;;;;5006943;28;20137;-88
2022/08/18 11:11:24;;;;;;;5.65;1.92;;;22.30;99.90;;;;;;4992388;28;20327;-87
2022/08/18 11:14:14;;;;;;;4.95;2.08;;;22.20;99.90;;;;;;4987197;28;20041;-89
2022/08/18 11:17:01;;;;;;;4.13;1.90;;;22.00;99.90;;;;;;5038482;28;20049;-87
2022/08/18 11:19:27;;;;;;;4.03;1.90;;;22.30;99.90;;;;;;4996248;28;20104;-88
2022/08/18 11:21:54;;;;;;;4.72;2.20;;;22.20;99.90;;;;;;5008929;28;20048;-88
2022/08/18 11:24:30;;;;;;;4.18;1.90;;;22.30;99.90;;;;;;5007499;28;20030;-88
2022/08/18 11:27:03;;;;;;;4.72;2.13;;;22.60;99.90;;;;;;5010124;28;20037;-88
2022/08/18 11:29:41;;;;;;;5.47;1.80;;;22.50;1.00;;;;;;4989502;28;20088;-88
2022/08/18 11:32:24;;;;;;;3.38;1.85;;;22.60;1.00;;;;;;5031208;28;20490;-88
2022/08/18 11:35:22;;;;;;;3.38;2.08;;;22.60;1.00;;;;;;5007540;28;20132;-87
2022/08/18 11:37:54;;;;;;;5.15;2.10;;;22.90;99.90;;;;;;5008036;28;20045;-84
2022/08/18 11:40:24;;;;;;;4.25;2.33;;;23.20;99.90;;;;;;5011663;28;20121;-85
2022/08/18 11:43:20;;;;;;;4.00;2.00;;;23.50;1.00;;;;;;5010465;28;20518;-85
2022/08/18 11:45:45;;;;;;;3.13;2.00;;;23.10;99.90;;;;;;5013942;28;20608;-84
2022/08/18 11:48:33;;;;;;;5.32;2.05;;;23.00;1.00;;;;;;5021505;28;20050;-84
2022/08/18 11:51:08;;;;;;;5.32;2.25;;;22.50;99.90;;;;;;5010667;28;20057;-84
2022/08/18 11:53:41;;;;;;;4.70;1.90;;;22.50;99.90;;;;;;4992580;28;20034;-85
2022/08/18 11:56:19;;;;;;;3.30;1.80;;;22.60;99.90;;;;;;5032677;28;20030;-85
2022/08/18 11:58:52;;;;;;;3.33;1.73;;;23.70;99.90;;;;;;5003532;28;20073;-84
2022/08/18 12:01:44;;;;;;;7.63;2.10;;;23.00;77.00;;;;;;5023870;28;20108;-84
2022/08/18 12:04:13;;;;;;;4.03;1.90;;;23.10;17.00;;;;;;5003766;28;20042;-85
2022/08/18 12:07:07;;;;;;;3.45;1.90;;;23.10;1.00;;;;;;5028139;28;20108;-85
2022/08/18 12:09:35;;;;;;;5.93;2.10;;;23.40;1.00;;;;;;5011989;28;20107;-85
2022/08/18 12:12:26;;;;;;;2.85;1.90;;;23.20;1.00;;;;;;5006794;28;20045;-85
2022/08/18 12:15:10;;;;;;;6.05;2.10;;;23.40;73.10;;;;;;4993047;28;20045;-85
2022/08/18 12:17:36;;;;;;;5.90;1.92;;;23.70;99.90;;;;;;5047193;28;20049;-84
2022/08/18 12:20:06;;;;;;;4.70;2.22;;;23.70;1.00;;;;;;5032948;28;20041;-84
2022/08/18 12:22:31;;;;;;;5.85;2.13;;;23.30;11.90;;;;;;4989041;28;20349;-84
2022/08/18 12:24:58;;;;;;;4.30;2.28;;;23.50;46.10;;;;;;5002833;28;20033;-84
2022/08/18 12:27:26;;;;;;;3.35;2.15;;;23.20;99.90;;;;;;4993496;28;20034;-84
2022/08/18 12:29:54;;;;;;;5.28;1.90;;;22.90;89.40;;;;;;5007373;28;20046;-85
2022/08/18 12:32:23;;;;;;;3.55;2.25;;;23.10;99.90;;;;;;4992786;28;20085;-84
2022/08/18 12:34:49;;;;;;;5.07;2.00;;;22.60;99.90;;;;;;5033983;28;20043;-84
2022/08/18 12:37:23;;;;;;;4.10;2.05;;;22.50;99.90;;;;;;5021430;28;20084;-84
2022/08/18 12:39:50;;;;;;;4.53;1.95;;;22.60;99.90;;;;;;5004563;28;20056;-84
2022/08/18 12:42:17;;;;;;;4.53;1.90;;;22.90;99.90;;;;;;4993054;28;20453;-84
2022/08/18 12:44:43;;;;;;;3.28;2.00;;;22.70;99.90;;;;;;5000219;28;20529;-84
2022/08/18 12:47:21;;;;;;;4.47;2.08;;;22.60;99.90;;;;;;5015049;28;20038;-85
2022/08/18 12:49:47;;;;;;;3.95;2.40;;;23.20;1.00;;;;;;5010603;28;20124;-84
2022/08/18 12:52:13;;;;;;;2.85;1.80;;;23.30;1.00;;;;;;4990378;28;20042;-84
2022/08/18 12:54:42;;;;;;;3.72;1.95;;;23.70;95.00;;;;;;5040180;28;20038;-84
2022/08/18 12:57:24;;;;;;;3.75;2.00;;;24.30;59.30;;;;;;4994157;28;20032;-83
2022/08/18 12:59:50;;;;;;;4.15;2.22;;;24.30;99.90;;;;;;5022958;28;20070;-84
2022/08/18 13:02:16;;;;;;;5.57;2.20;;;23.70;99.90;;;;;;5030165;28;20099;-84
2022/08/18 13:04:43;;;;;;;3.72;1.80;;;23.90;1.00;;;;;;5011408;28;20103;-84
2022/08/18 13:07:11;;;;;;;4.25;1.90;;;23.90;99.90;;;;;;4989360;28;20042;-84
2022/08/18 13:09:37;;;;;;;2.33;1.83;;;23.70;99.90;;;;;;5032146;28;20092;-84
2022/08/18 13:12:05;;;;;;;3.75;2.10;;;24.30;99.90;;;;;;5026355;28;20198;-84
2022/08/18 13:14:30;;;;;;;3.00;2.10;;;24.40;99.90;;;;;;5033050;28;20101;-84
2022/08/18 13:16:56;;;;;;;3.08;2.00;;;23.00;99.90;;;;;;5007968;28;20502;-84
2022/08/18 13:19:22;;;;;;;4.53;2.22;;;23.80;99.90;;;;;;5037173;28;20547;-84
2022/08/18 13:21:48;;;;;;;3.63;2.22;;;23.90;99.90;;;;;;4994757;28;20485;-83
2022/08/18 13:24:13;;;;;;;3.08;1.98;;;25.20;99.90;;;;;;4990067;28;20488;-84
2022/08/18 13:26:44;;;;;;;6.13;2.00;;;24.50;99.90;;;;;;5005904;28;20050;-85